Terminal Aerodrome Forecast
Issued by NWS

Home | Current Version | Previous Version | Text Only | Print | Product List | Glossary On
Versions: 1 2 3 4 5 6 7 8 9 10 11 12 13 14 15
583
FTUS41 KCAR 212320
TAFPQI
TAF
KPQI 212320Z 2200/2224 29009KT P6SM VCTS BKN080CB
      TEMPO 2200/2203 -TSRA OVC040CB
     FM220300 29005KT P6SM SCT080
     FM221400 30011G17KT P6SM FEW050 SCT200=

USA.gov is the U.S. government's official web portal to all federal, state and local government web resources and services.